createdAt,value
2022-12-04T00:00:27.409Z,12.77
2022-12-04T00:02:54.426Z,13.10
2022-12-04T00:05:21.379Z,12.18
2022-12-04T00:07:48.242Z,13.10
2022-12-04T00:10:15.184Z,13.80
2022-12-04T00:12:41.966Z,11.95
2022-12-04T00:15:25.194Z,13.80
2022-12-04T00:17:53.098Z,13.75
2022-12-04T00:20:22.916Z,12.50
2022-12-04T00:22:49.736Z,14.13
2022-12-04T00:25:16.676Z,13.00
2022-12-04T00:27:43.472Z,10.85
2022-12-04T00:30:10.884Z,10.38
2022-12-04T00:32:37.732Z,12.77
2022-12-04T00:35:04.913Z,11.98
2022-12-04T00:37:33.351Z,10.50
2022-12-04T00:40:00.175Z,11.40
2022-12-04T00:42:27.044Z,13.13
2022-12-04T00:44:53.861Z,12.25
2022-12-04T00:47:20.896Z,12.10
2022-12-04T00:49:47.728Z,11.00
2022-12-04T00:52:14.522Z,12.77
2022-12-04T00:54:41.458Z,12.43
2022-12-04T00:57:08.394Z,11.40
2022-12-04T00:59:36.709Z,13.23
2022-12-04T01:02:03.952Z,13.02
2022-12-04T01:04:30.767Z,11.40
2022-12-04T01:07:03.193Z,12.70
2022-12-04T01:09:32.876Z,13.20
2022-12-04T01:11:59.748Z,13.15
2022-12-04T01:14:26.590Z,13.18
2022-12-04T01:16:53.456Z,12.75
2022-12-04T01:19:20.615Z,13.15
2022-12-04T01:21:47.407Z,12.63
2022-12-04T01:24:14.240Z,12.73
2022-12-04T01:26:41.050Z,13.77
2022-12-04T01:29:07.883Z,12.60
2022-12-04T01:31:35.146Z,11.63
2022-12-04T01:34:02.025Z,12.75
2022-12-04T01:36:29.560Z,12.38
2022-12-04T01:38:56.567Z,12.25
2022-12-04T01:41:26.948Z,12.85
2022-12-04T01:44:23.739Z,12.02
2022-12-04T01:46:52.901Z,13.00
2022-12-04T01:49:42.817Z,12.90
2022-12-04T01:52:17.723Z,12.77
2022-12-04T01:54:47.990Z,10.95
2022-12-04T01:57:18.155Z,11.63
2022-12-04T01:59:53.524Z,13.02
2022-12-04T02:02:32.150Z,11.85
2022-12-04T02:05:00.728Z,12.90
2022-12-04T02:07:28.449Z,13.25
2022-12-04T02:09:56.416Z,12.13
2022-12-04T02:12:45.231Z,12.10
2022-12-04T02:15:46.608Z,12.57
2022-12-04T02:18:26.544Z,11.40
2022-12-04T02:21:00.030Z,11.90
2022-12-04T02:24:04.631Z,12.50
2022-12-04T02:26:41.955Z,11.63
2022-12-04T02:29:20.764Z,12.25
2022-12-04T02:32:06.297Z,11.48
2022-12-04T02:34:40.492Z,12.25
2022-12-04T02:37:22.109Z,11.80
2022-12-04T02:39:52.124Z,11.70
2022-12-04T02:42:35.728Z,12.20
2022-12-04T02:45:08.777Z,11.35
2022-12-04T02:47:38.031Z,11.23
2022-12-04T02:50:10.163Z,12.20
2022-12-04T02:52:53.864Z,12.73
2022-12-04T02:55:36.011Z,13.15
2022-12-04T02:58:09.979Z,12.18
2022-12-04T03:00:37.668Z,11.35
2022-12-04T03:03:10.609Z,12.57
2022-12-04T03:05:46.177Z,13.80
2022-12-04T03:08:19.555Z,13.40
2022-12-04T03:10:51.305Z,12.93
2022-12-04T03:13:31.028Z,12.30
2022-12-04T03:16:17.521Z,12.63
2022-12-04T03:18:55.832Z,13.10
2022-12-04T03:21:28.160Z,12.90
2022-12-04T03:24:23.773Z,10.20
2022-12-04T03:27:08.807Z,12.13
2022-12-04T03:29:38.658Z,12.43
2022-12-04T03:32:13.493Z,10.98
2022-12-04T03:34:59.547Z,12.68
2022-12-04T03:38:07.065Z,12.65
2022-12-04T03:40:45.631Z,12.80
2022-12-04T03:43:20.035Z,10.55
2022-12-04T03:45:52.939Z,13.55
2022-12-04T03:48:25.132Z,11.55
2022-12-04T03:51:09.107Z,11.05
2022-12-04T03:53:44.556Z,11.43
2022-12-04T03:56:11.335Z,13.02
2022-12-04T03:58:42.888Z,10.40
2022-12-04T04:01:12.063Z,9.95
2022-12-04T04:03:45.141Z,9.70
2022-12-04T04:06:18.173Z,10.15
2022-12-04T04:08:49.036Z,12.02
2022-12-04T04:11:21.849Z,12.00
2022-12-04T04:14:14.441Z,11.15
2022-12-04T04:17:04.516Z,12.82
2022-12-04T04:19:53.571Z,12.57
2022-12-04T04:22:41.977Z,12.30
2022-12-04T04:25:13.320Z,12.85
2022-12-04T04:27:40.143Z,12.82
2022-12-04T04:30:09.193Z,11.88
2022-12-04T04:32:49.089Z,11.70
2022-12-04T04:35:42.951Z,11.38
2022-12-04T04:38:12.571Z,12.07
2022-12-04T04:40:53.691Z,12.85
2022-12-04T04:43:29.463Z,10.98
2022-12-04T04:46:02.425Z,11.57
2022-12-04T04:48:32.306Z,13.25
2022-12-04T04:51:00.372Z,12.63
2022-12-04T04:53:33.509Z,11.98
2022-12-04T04:56:00.463Z,12.38
2022-12-04T04:58:27.314Z,11.35
2022-12-04T05:01:02.629Z,10.80
2022-12-04T05:03:30.095Z,11.05
2022-12-04T05:05:56.979Z,10.20
2022-12-04T05:08:24.074Z,11.07
2022-12-04T05:10:50.988Z,11.80
2022-12-04T05:13:18.526Z,11.65
2022-12-04T05:15:45.672Z,9.85
2022-12-04T05:18:12.883Z,10.57
2022-12-04T05:20:40.455Z,11.10
2022-12-04T05:23:07.493Z,11.57
2022-12-04T05:25:34.346Z,11.30
2022-12-04T05:28:01.228Z,10.57
2022-12-04T05:30:28.011Z,10.48
2022-12-04T05:32:54.815Z,10.98
2022-12-04T05:35:21.622Z,9.93
2022-12-04T05:37:48.656Z,10.88
2022-12-04T05:40:15.571Z,10.80
2022-12-04T05:42:42.440Z,9.43
2022-12-04T05:45:09.470Z,9.95
2022-12-04T05:47:43.599Z,11.60
2022-12-04T05:50:12.810Z,10.60
2022-12-04T05:52:39.644Z,10.65
2022-12-04T05:55:06.664Z,10.05
2022-12-04T05:57:33.448Z,11.63
2022-12-04T06:00:00.276Z,11.10
2022-12-04T06:02:27.210Z,11.50
2022-12-04T06:04:54.090Z,11.75
2022-12-04T06:07:20.956Z,11.98
2022-12-04T06:09:47.768Z,11.25
2022-12-04T06:12:14.679Z,10.48
2022-12-04T06:14:41.524Z,10.70
2022-12-04T06:17:08.359Z,11.05
2022-12-04T06:19:35.214Z,11.90
2022-12-04T06:22:02.042Z,11.07
2022-12-04T06:24:28.907Z,12.00
2022-12-04T06:27:26.337Z,11.15
2022-12-04T06:29:44.888Z,12.38
2022-12-04T06:32:14.067Z,11.68
2022-12-04T06:34:44.745Z,11.57
2022-12-04T06:37:11.591Z,12.75
2022-12-04T06:39:38.394Z,12.32
2022-12-04T06:42:05.228Z,13.40
2022-12-04T06:44:32.108Z,12.82
2022-12-04T06:47:00.897Z,13.18
2022-12-04T06:49:28.107Z,12.15
2022-12-04T06:51:54.891Z,11.50
2022-12-04T06:54:21.718Z,13.15
2022-12-04T06:56:49.827Z,12.77
2022-12-04T06:59:16.648Z,12.80
2022-12-04T07:01:43.611Z,13.60
2022-12-04T07:04:10.494Z,12.63
2022-12-04T07:06:38.968Z,12.48
2022-12-04T07:09:17.230Z,12.55
2022-12-04T07:11:44.877Z,12.57
2022-12-04T07:14:13.279Z,11.13
2022-12-04T07:16:41.967Z,11.65
2022-12-04T07:19:11.391Z,11.65
2022-12-04T07:21:38.348Z,11.48
2022-12-04T07:24:05.342Z,11.57
2022-12-04T07:26:32.180Z,10.13
2022-12-04T07:28:59.609Z,10.45
2022-12-04T07:31:28.392Z,10.70
2022-12-04T07:33:57.246Z,11.45
2022-12-04T07:36:25.389Z,11.18
2022-12-04T07:38:54.305Z,10.70
2022-12-04T07:41:21.141Z,11.77
2022-12-04T07:43:47.940Z,9.90
2022-12-04T07:46:20.977Z,11.40
2022-12-04T07:48:47.914Z,10.13
2022-12-04T07:51:21.304Z,11.45
2022-12-04T07:53:49.953Z,12.80
2022-12-04T07:56:17.380Z,11.52
2022-12-04T07:58:44.909Z,11.25
2022-12-04T08:01:15.047Z,13.27
2022-12-04T08:03:47.469Z,12.30
2022-12-04T08:06:15.987Z,11.63
2022-12-04T08:08:42.796Z,10.68
2022-12-04T08:11:12.350Z,12.50
2022-12-04T08:13:39.492Z,12.50
2022-12-04T08:16:08.609Z,11.82
2022-12-04T08:18:35.789Z,12.95
2022-12-04T08:21:05.109Z,12.25
2022-12-04T08:23:32.092Z,11.98
2022-12-04T08:26:00.920Z,11.90
2022-12-04T08:28:28.832Z,10.93
2022-12-04T08:30:55.827Z,11.20
2022-12-04T08:33:22.684Z,13.77
2022-12-04T08:35:49.562Z,11.30
2022-12-04T08:38:16.397Z,12.88
2022-12-04T08:40:43.211Z,12.88
2022-12-04T08:43:09.998Z,12.65
2022-12-04T08:45:37.022Z,12.40
2022-12-04T08:48:03.946Z,13.05
2022-12-04T08:50:30.959Z,13.38
2022-12-04T08:52:57.836Z,13.05
2022-12-04T08:55:24.758Z,12.85
2022-12-04T08:57:52.807Z,11.80
2022-12-04T09:00:20.090Z,12.50
2022-12-04T09:02:49.991Z,12.35
2022-12-04T09:05:17.429Z,12.88
2022-12-04T09:07:44.334Z,13.80
2022-12-04T09:10:12.345Z,12.85
2022-12-04T09:12:39.196Z,12.13
2022-12-04T09:15:06.976Z,12.95
2022-12-04T09:17:36.244Z,11.95
2022-12-04T09:20:05.689Z,12.70
2022-12-04T09:23:01.768Z,11.70
2022-12-04T09:25:22.279Z,12.35
2022-12-04T09:27:49.064Z,11.38
2022-12-04T09:30:16.048Z,12.13
2022-12-04T09:32:42.846Z,12.18
2022-12-04T09:35:09.679Z,12.52
2022-12-04T09:37:36.778Z,12.75
2022-12-04T09:40:07.781Z,12.73
2022-12-04T09:42:53.507Z,12.90
2022-12-04T09:45:26.515Z,13.15
2022-12-04T09:48:00.207Z,13.20
2022-12-04T09:50:40.367Z,14.25
2022-12-04T09:53:40.893Z,12.98
2022-12-04T09:56:12.984Z,12.15
2022-12-04T09:58:45.599Z,14.32
2022-12-04T10:01:41.842Z,13.63
2022-12-04T10:04:11.205Z,14.13
2022-12-04T10:06:47.000Z,13.93
2022-12-04T10:09:36.617Z,14.02
2022-12-04T10:12:36.436Z,14.48
2022-12-04T10:15:24.608Z,13.68
2022-12-04T10:18:30.148Z,12.68
2022-12-04T10:21:31.041Z,14.15
2022-12-04T10:24:10.240Z,14.35
2022-12-04T10:26:43.241Z,14.52
2022-12-04T10:29:32.662Z,13.25
2022-12-04T10:32:22.795Z,14.02
2022-12-04T10:34:53.633Z,13.73
2022-12-04T10:37:21.229Z,12.77
2022-12-04T10:39:57.453Z,14.18
2022-12-04T10:42:53.617Z,15.48
2022-12-04T10:45:22.810Z,13.65
2022-12-04T10:47:52.255Z,14.20
2022-12-04T10:50:23.005Z,14.63
2022-12-04T10:52:50.098Z,13.77
2022-12-04T10:55:32.225Z,13.80
2022-12-04T10:57:59.080Z,14.07
2022-12-04T11:00:27.041Z,13.82
2022-12-04T11:02:56.228Z,13.55
2022-12-04T11:05:31.274Z,13.20
2022-12-04T11:08:00.293Z,12.95
2022-12-04T11:10:43.239Z,12.70
2022-12-04T11:13:13.113Z,13.13
2022-12-04T11:15:48.576Z,13.43
2022-12-04T11:18:27.492Z,13.25
2022-12-04T11:21:07.364Z,13.30
2022-12-04T11:23:42.310Z,13.23
2022-12-04T11:26:10.501Z,14.93
2022-12-04T11:28:42.204Z,14.60
2022-12-04T11:31:16.060Z,14.52
2022-12-04T11:33:55.692Z,12.93
2022-12-04T11:36:40.703Z,14.05
2022-12-04T11:39:17.531Z,13.60
2022-12-04T11:41:45.086Z,13.70
2022-12-04T11:44:50.277Z,13.23
2022-12-04T11:47:19.599Z,13.32
2022-12-04T11:49:57.978Z,14.30
2022-12-04T11:52:41.520Z,14.68
2022-12-04T11:55:37.907Z,14.48
2022-12-04T11:58:46.139Z,14.30
2022-12-04T12:01:36.480Z,12.82
2022-12-04T12:04:29.379Z,13.25
2022-12-04T12:06:59.186Z,14.00
2022-12-04T12:09:47.404Z,14.60
2022-12-04T12:12:22.473Z,15.50
2022-12-04T12:14:58.224Z,13.60
2022-12-04T12:17:50.469Z,13.73
2022-12-04T12:20:41.227Z,14.18
2022-12-04T12:23:34.725Z,14.32
2022-12-04T12:26:11.214Z,14.65
2022-12-04T12:28:47.182Z,14.55
2022-12-04T12:31:51.033Z,12.80
2022-12-04T12:34:36.042Z,12.77
2022-12-04T12:37:12.644Z,13.73
2022-12-04T12:39:51.153Z,12.65
2022-12-04T12:42:25.016Z,13.60
2022-12-04T12:45:22.592Z,14.15
2022-12-04T12:47:53.415Z,14.68
2022-12-04T12:50:32.775Z,13.55
2022-12-04T12:53:05.277Z,11.90
2022-12-04T12:55:55.042Z,13.43
2022-12-04T12:58:38.491Z,13.15
2022-12-04T13:01:14.361Z,13.30
2022-12-04T13:04:00.263Z,13.43
2022-12-04T13:06:48.930Z,13.73
2022-12-04T13:09:26.469Z,13.10
2022-12-04T13:11:59.790Z,14.05
2022-12-04T13:14:26.696Z,14.65
2022-12-04T13:17:08.735Z,15.65
2022-12-04T13:19:43.518Z,13.43
2022-12-04T13:22:38.655Z,14.20
2022-12-04T13:25:25.604Z,15.15
2022-12-04T13:28:19.655Z,13.82
2022-12-04T13:30:57.646Z,15.15
2022-12-04T13:33:49.058Z,14.60
2022-12-04T13:36:45.228Z,14.13
2022-12-04T13:39:47.507Z,12.48
2022-12-04T13:42:26.742Z,13.90
2022-12-04T13:44:59.598Z,14.45
2022-12-04T13:47:33.031Z,13.77
2022-12-04T13:50:28.067Z,13.73
2022-12-04T13:52:55.783Z,14.80
2022-12-04T13:55:29.186Z,14.52
2022-12-04T13:58:24.156Z,15.25
2022-12-04T14:01:05.968Z,15.23
2022-12-04T14:03:51.212Z,14.10
2022-12-04T14:06:39.512Z,14.93
2022-12-04T14:09:18.204Z,16.25
2022-12-04T14:11:48.415Z,14.95
2022-12-04T14:14:31.756Z,14.70
2022-12-04T14:17:00.042Z,14.52
2022-12-04T14:19:34.593Z,14.32
2022-12-04T14:22:01.926Z,14.30
2022-12-04T14:24:37.573Z,13.95
2022-12-04T14:27:36.445Z,16.08
2022-12-04T14:30:04.015Z,15.07
2022-12-04T14:32:34.400Z,15.60
2022-12-04T14:35:01.973Z,17.02
2022-12-04T14:37:31.503Z,16.30
2022-12-04T14:39:59.546Z,16.33
2022-12-04T14:42:37.116Z,17.13
2022-12-04T14:45:26.065Z,17.25
2022-12-04T14:47:52.808Z,15.95
2022-12-04T14:50:41.083Z,16.90
2022-12-04T14:53:23.604Z,17.05
2022-12-04T14:56:07.654Z,17.50
2022-12-04T14:58:37.728Z,18.95
2022-12-04T15:01:29.048Z,19.42
2022-12-04T15:04:00.646Z,18.02
2022-12-04T15:06:29.551Z,17.08
2022-12-04T15:09:31.128Z,18.02
2022-12-04T15:12:17.757Z,19.35
2022-12-04T15:14:47.334Z,19.48
2022-12-04T15:17:18.604Z,18.15
2022-12-04T15:19:45.904Z,19.30
2022-12-04T15:22:23.588Z,18.80
2022-12-04T15:24:51.743Z,18.75
2022-12-04T15:27:26.101Z,20.13
2022-12-04T15:29:57.694Z,19.67
2022-12-04T15:32:28.694Z,19.05
2022-12-04T15:35:02.863Z,21.67
2022-12-04T15:37:31.131Z,19.33
2022-12-04T15:39:59.111Z,19.55
2022-12-04T15:42:29.021Z,19.67
2022-12-04T15:45:02.667Z,17.88
2022-12-04T15:47:33.061Z,19.38
2022-12-04T15:50:10.474Z,18.52
2022-12-04T15:52:37.874Z,18.17
2022-12-04T15:55:09.273Z,18.75
2022-12-04T15:57:42.610Z,17.65
2022-12-04T16:00:21.714Z,16.70
2022-12-04T16:02:49.370Z,15.63
2022-12-04T16:05:22.214Z,16.75
2022-12-04T16:07:56.231Z,16.50
2022-12-04T16:10:27.435Z,17.33
2022-12-04T16:13:03.209Z,17.00
2022-12-04T16:15:43.907Z,15.20
2022-12-04T16:18:14.080Z,15.75
2022-12-04T16:20:41.618Z,16.35
2022-12-04T16:23:09.522Z,15.43
2022-12-04T16:25:36.323Z,16.75
2022-12-04T16:28:03.277Z,14.68
2022-12-04T16:30:33.353Z,15.02
2022-12-04T16:33:00.236Z,15.07
2022-12-04T16:35:27.158Z,13.63
2022-12-04T16:37:53.960Z,15.18
2022-12-04T16:40:20.800Z,15.73
2022-12-04T16:42:47.656Z,14.95
2022-12-04T16:45:31.251Z,15.52
2022-12-04T16:47:58.472Z,15.20
2022-12-04T16:50:26.591Z,14.38
2022-12-04T16:52:53.843Z,15.32
2022-12-04T16:55:34.432Z,14.52
2022-12-04T16:58:02.848Z,15.10
2022-12-04T17:00:29.781Z,16.42
2022-12-04T17:02:57.017Z,16.27
2022-12-04T17:05:27.057Z,17.00
2022-12-04T17:07:54.217Z,15.38
2022-12-04T17:10:24.323Z,14.77
2022-12-04T17:12:54.671Z,14.00
2022-12-04T17:15:21.903Z,13.95
2022-12-04T17:17:49.108Z,14.77
2022-12-04T17:20:18.785Z,12.98
2022-12-04T17:22:45.814Z,13.80
2022-12-04T17:25:13.530Z,13.90
2022-12-04T17:27:40.783Z,13.90
2022-12-04T17:30:08.353Z,14.00
2022-12-04T17:32:35.708Z,13.77
2022-12-04T17:35:03.263Z,14.10
2022-12-04T17:37:32.164Z,13.50
2022-12-04T17:39:59.155Z,13.20
2022-12-04T17:42:26.232Z,14.80
2022-12-04T17:44:53.035Z,14.75
2022-12-04T17:47:19.909Z,13.70
2022-12-04T17:49:46.715Z,14.90
2022-12-04T17:52:13.541Z,13.73
2022-12-04T17:54:40.402Z,16.10
2022-12-04T17:57:07.258Z,12.85
2022-12-04T17:59:34.053Z,12.80
2022-12-04T18:02:00.831Z,13.00
2022-12-04T18:04:27.815Z,13.38
2022-12-04T18:06:56.409Z,12.38
2022-12-04T18:09:23.705Z,13.23
2022-12-04T18:11:50.576Z,13.48
2022-12-04T18:14:19.358Z,14.40
2022-12-04T18:16:47.970Z,14.38
2022-12-04T18:19:15.292Z,14.43
2022-12-04T18:21:42.183Z,14.75
2022-12-04T18:24:09.510Z,12.90
2022-12-04T18:26:42.389Z,14.93
2022-12-04T18:29:12.491Z,14.10
2022-12-04T18:31:39.630Z,14.55
2022-12-04T18:34:07.393Z,14.75
2022-12-04T18:36:35.651Z,13.18
2022-12-04T18:39:15.243Z,14.35
2022-12-04T18:41:42.873Z,15.40
2022-12-04T18:44:10.046Z,13.80
2022-12-04T18:46:37.257Z,12.75
2022-12-04T18:49:05.244Z,13.73
2022-12-04T18:51:40.614Z,12.65
2022-12-04T18:54:14.025Z,12.23
2022-12-04T18:56:41.648Z,12.77
2022-12-04T18:59:16.923Z,13.10
2022-12-04T19:01:44.000Z,12.88
2022-12-04T19:04:12.634Z,11.43
2022-12-04T19:06:44.923Z,12.52
2022-12-04T19:09:15.244Z,13.25
2022-12-04T19:11:42.858Z,13.55
2022-12-04T19:14:19.271Z,13.35
2022-12-04T19:16:49.657Z,12.80
2022-12-04T19:19:16.946Z,12.73
2022-12-04T19:21:44.537Z,11.75
2022-12-04T19:24:12.245Z,13.10
2022-12-04T19:26:39.969Z,11.55
2022-12-04T19:29:07.979Z,12.50
2022-12-04T19:31:37.313Z,11.23
2022-12-04T19:34:06.351Z,12.23
2022-12-04T19:36:35.029Z,11.23
2022-12-04T19:39:02.646Z,11.85
2022-12-04T19:41:30.714Z,11.30
2022-12-04T19:44:00.119Z,12.20
2022-12-04T19:46:30.410Z,12.48
2022-12-04T19:49:01.617Z,11.98
2022-12-04T19:51:32.014Z,11.15
2022-12-04T19:53:59.248Z,10.32
2022-12-04T19:56:27.649Z,11.80
2022-12-04T19:58:57.911Z,11.32
2022-12-04T20:01:30.448Z,11.80
2022-12-04T20:04:05.131Z,10.88
2022-12-04T20:06:40.707Z,10.73
2022-12-04T20:09:13.384Z,10.90
2022-12-04T20:11:40.688Z,9.88
2022-12-04T20:14:08.280Z,9.05
2022-12-04T20:16:35.650Z,9.65
2022-12-04T20:19:04.427Z,9.90
2022-12-04T20:21:32.544Z,10.27
2022-12-04T20:24:04.119Z,9.73
2022-12-04T20:26:34.483Z,9.00
2022-12-04T20:29:02.249Z,9.40
2022-12-04T20:31:32.054Z,9.57
2022-12-04T20:34:00.838Z,9.43
2022-12-04T20:36:30.330Z,10.13
2022-12-04T20:38:59.138Z,6.95
2022-12-04T20:41:27.709Z,8.57
2022-12-04T20:43:55.460Z,8.98
2022-12-04T20:46:26.955Z,9.35
2022-12-04T20:48:54.431Z,8.63
2022-12-04T20:51:24.118Z,9.90
2022-12-04T20:53:52.111Z,9.80
2022-12-04T20:56:21.778Z,9.93
2022-12-04T20:58:48.887Z,9.45
2022-12-04T21:01:18.341Z,9.23
2022-12-04T21:03:46.020Z,9.07
2022-12-04T21:06:20.043Z,8.75
2022-12-04T21:08:53.443Z,9.60
2022-12-04T21:11:34.220Z,9.05
2022-12-04T21:14:20.997Z,10.50
2022-12-04T21:16:48.834Z,9.38
2022-12-04T21:19:19.631Z,8.85
2022-12-04T21:21:46.901Z,10.43
2022-12-04T21:24:15.842Z,9.93
2022-12-04T21:26:43.514Z,10.38
2022-12-04T21:29:10.402Z,11.00
2022-12-04T21:31:38.062Z,10.25
2022-12-04T21:34:08.428Z,10.68
2022-12-04T21:36:35.745Z,10.23
2022-12-04T21:39:02.991Z,9.98
2022-12-04T21:41:48.280Z,10.45
2022-12-04T21:44:17.972Z,10.30
2022-12-04T21:46:46.278Z,11.48
2022-12-04T21:49:14.228Z,10.68
2022-12-04T21:51:57.443Z,10.00
2022-12-04T21:54:26.215Z,9.63
2022-12-04T21:56:53.026Z,10.50
2022-12-04T21:59:19.848Z,10.50
2022-12-04T22:01:46.730Z,10.77
2022-12-04T22:04:13.782Z,11.35
2022-12-04T22:06:40.778Z,10.95
2022-12-04T22:09:09.851Z,11.20
2022-12-04T22:11:37.566Z,11.43
2022-12-04T22:14:04.831Z,11.25
2022-12-04T22:16:33.793Z,10.50
2022-12-04T22:19:04.469Z,11.32
2022-12-04T22:21:31.459Z,10.65
2022-12-04T22:23:59.894Z,9.77
2022-12-04T22:26:27.695Z,8.52
2022-12-04T22:28:55.024Z,9.05
2022-12-04T22:31:24.497Z,9.88
2022-12-04T22:33:54.874Z,10.02
2022-12-04T22:36:24.693Z,9.50
2022-12-04T22:39:08.772Z,10.55
2022-12-04T22:41:37.179Z,9.38
2022-12-04T22:44:04.276Z,10.65
2022-12-04T22:46:31.238Z,9.43
2022-12-04T22:48:59.463Z,10.05
2022-12-04T22:51:27.281Z,9.40
2022-12-04T22:53:56.899Z,9.50
2022-12-04T22:56:29.068Z,9.27
2022-12-04T22:58:57.981Z,10.30
2022-12-04T23:01:31.437Z,11.18
2022-12-04T23:03:59.143Z,10.70
2022-12-04T23:06:28.307Z,10.05
2022-12-04T23:08:57.576Z,10.55
2022-12-04T23:11:25.964Z,10.45
2022-12-04T23:13:55.597Z,10.77
2022-12-04T23:16:23.856Z,9.68
2022-12-04T23:18:51.163Z,10.77
2022-12-04T23:21:20.151Z,10.30
2022-12-04T23:23:49.022Z,10.90
2022-12-04T23:26:19.536Z,10.50
2022-12-04T23:28:46.798Z,10.00
2022-12-04T23:31:14.468Z,9.88
2022-12-04T23:33:41.719Z,10.70
2022-12-04T23:36:10.862Z,10.02
2022-12-04T23:38:39.136Z,9.35
2022-12-04T23:41:10.389Z,10.02
2022-12-04T23:43:37.886Z,10.10
2022-12-04T23:46:10.627Z,10.07
2022-12-04T23:48:38.237Z,10.20
2022-12-04T23:51:05.091Z,9.65
2022-12-04T23:53:31.946Z,9.35
2022-12-04T23:56:02.268Z,10.52
2022-12-04T23:58:29.298Z,11.23
